Sugarloaf Key, Florida
Current Conditions -  °F | °C
As of 6:53 AM on Thursday 23 Oct 2014 (Local Time) from KNQX Reporting Station
Light Rain Light Rain  
Wind Chill: 75°   Ceiling: 2200
Heat Index: 75°   Visibility: 10mi
Dew Point: 72°   Wind: 17mph
Humidity: 90%   Direction: 90°E
Pressure: 29.85"   Gusts: NA
Location:  24.6465°N, 81.5399°W
Report Text: KNQX 231053Z 09015KT 10SM -RA SCT014 BKN022 OVC050 24/22 A2985 RMK AO2 SLP106 T2 SET P0002 T02390222 $
Loading
Personal Weather Stations






























Interactive Weather Map
Tropical Storm Tracking
New forecast layout! Learn more

10-Day Weather Forecast

Advertisements
Track Severe Weather on mobile